KIKK/IKK METAR and TAF weather

Enter ICAO airport designator
Station Type Date Time Source
KIKK METAR 2021/03/01 21:55 UTC NOAA

KIKK 012155Z AUTO 30008KT 10SM SCT032 01/M05 A3032 RMK AO2 T00111049 TSNO


Station Type Date Time Source
KIKK Decoded METAR 2021/03/01 21:55 UTC NOAA

Kankakee, Greater Kankakee Airport, IL, United States (KIKK) 41-04-17N 087-50-47W
Mar 01, 2021 - 04:55 PM EST / 2021.03.01 2155 UTC
Wind: from the WNW (300 degrees) at 9 MPH (8 KT):0
Visibility: 10 mile(s):0
Sky conditions: partly cloudy
Temperature: 34.0 F (1.1 C)
Windchill: 26 F (-3 C):1
Dew Point: 23.2 F (-4.9 C)
Relative Humidity: 64%
Pressure (altimeter): 30.32 in. Hg (1026 hPa)
ob: KIKK 012155Z AUTO 30008KT 10SM SCT032 01/M05 A3032 RMK AO2 T00111049 TSNO
cycle: 22

Station Type Date Time Source
KIKK TAF UTC NOAA

Error!

Example: see airport list